»·PEaware :: N6236F KBNG-L52

N6236F :: KBNG-L52

FLIGHT INFORMATION

Flight Status: Arrived
Operator: Privately registered:
United States
More flights under this callsign
Pilot: Jacob C. (16006)
Aircraft: SOCATA TBM-900
(TBM9)
More flights by this aircraft type
Origin: KBNG Banning Mun
United States
Destination: L52 Oceano Co
United States
More flights between these airports :: More routes between these airports
Route: PDZ J93 JUGLI DERBB
File this flight plan on PilotEdge
Remarks:
Altitude:
(Current/Filed)
16,500ft
Speed:
(Current/Filed)
293kts
Departed: 14-Sep-20 05:22 PM
Arrived: 14-Sep-20 06:25 PM
Distance/Time
Traveled:
6721nm/1:03
Distance/Time
To Go:
Arrived

Flight Plot

Page will automatically refresh every two minutes.

Flight plan parsing failed; only flown route is shown


Map Options




Map Legend


Flown Route
Filed Route
Departure Airport
Arrival Airport
Navaid (VOR, NDB)
Fix

Horizontal Profiles

Position Reports

Time Latitude Longitude Heading Altitude Ground
Speed
14-Sep-20 16:58 33.921480 -116.856761 308 2205ft 0kts
14-Sep-20 16:59 33.921480 -116.856761 308 2205ft 0kts
14-Sep-20 17:00 33.921480 -116.856761 308 2205ft 0kts
14-Sep-20 17:01 33.921480 -116.856761 308 2205ft 0kts
14-Sep-20 17:02 33.921480 -116.856761 308 2205ft 0kts
14-Sep-20 17:03 33.921480 -116.856761 308 2205ft 0kts
14-Sep-20 17:04 33.921480 -116.856761 308 2205ft 0kts
14-Sep-20 17:05 33.921480 -116.856761 308 2205ft 0kts
14-Sep-20 17:06 33.921480 -116.856761 308 2205ft 0kts
14-Sep-20 17:07 33.921480 -116.856761 308 2205ft 0kts
14-Sep-20 17:08 33.921480 -116.856761 308 2205ft 0kts
14-Sep-20 17:09 33.921480 -116.856761 308 2205ft 0kts
14-Sep-20 17:10 33.921480 -116.856761 308 2205ft 0kts
14-Sep-20 17:11 33.921480 -116.856761 308 2205ft 0kts
14-Sep-20 17:12 33.921480 -116.856761 308 2205ft 0kts
14-Sep-20 17:13 33.921480 -116.856761 308 2205ft 0kts
14-Sep-20 17:14 33.921480 -116.856761 308 2205ft 0kts
14-Sep-20 17:15 33.921480 -116.856761 308 2205ft 0kts
14-Sep-20 17:16 33.921569 -116.856812 8 2206ft 3kts
14-Sep-20 17:17 33.922031 -116.854159 89 2186ft 16kts
14-Sep-20 17:18 33.921985 -116.846950 88 2141ft 20kts
14-Sep-20 17:19 33.922060 -116.842216 6 2110ft 0kts
14-Sep-20 17:20 33.922060 -116.842216 6 2110ft 0kts
14-Sep-20 17:21 33.920646 -116.858824 267 2733ft 108kts
14-Sep-20 17:22 33.925462 -116.900636 262 5029ft 128kts
14-Sep-20 17:23 33.924555 -116.951923 271 4972ft 175kts
14-Sep-20 17:27 33.921480 -116.856761 308 2205ft 0kts
14-Sep-20 17:28 33.921480 -116.856761 308 2205ft 0kts
14-Sep-20 17:29 33.921480 -116.856761 308 2205ft 0kts
14-Sep-20 17:30 33.921480 -116.856761 308 2205ft 0kts
14-Sep-20 17:31 33.921480 -116.856761 308 2205ft 0kts
14-Sep-20 17:32 33.922004 -116.850282 90 2160ft 22kts
14-Sep-20 17:33 33.921993 -116.842302 44 2110ft 0kts
14-Sep-20 17:34 33.922478 -116.842985 269 2115ft 30kts
14-Sep-20 17:35 33.923414 -116.879810 273 3324ft 153kts
14-Sep-20 17:36 33.925822 -116.935412 263 5894ft 172kts
14-Sep-20 17:37 33.922017 -116.992745 270 8557ft 175kts
14-Sep-20 17:38 33.921707 -117.052255 269 11262ft 178kts
14-Sep-20 17:39 33.921376 -117.111947 269 13885ft 179kts
14-Sep-20 17:39 33.921089 -117.162478 269 15865ft 192kts
14-Sep-20 17:41 33.920494 -117.253861 269 16447ft 267kts
14-Sep-20 17:42 33.919849 -117.347056 269 16459ft 289kts
14-Sep-20 17:43 33.919069 -117.444675 269 16459ft 297kts
14-Sep-20 17:43 33.921388 -117.527509 277 16457ft 299kts
14-Sep-20 17:44 33.946889 -117.622233 287 16457ft 300kts
14-Sep-20 17:46 33.979428 -117.732725 288 16454ft 300kts
14-Sep-20 17:46 34.008757 -117.808313 301 16455ft 301kts
14-Sep-20 17:47 34.062103 -117.884591 307 16453ft 301kts
14-Sep-20 17:48 34.111927 -117.955853 308 16457ft 301kts
14-Sep-20 17:49 34.163094 -118.029428 309 16512ft 301kts
14-Sep-20 17:50 34.213354 -118.101884 309 16518ft 302kts
14-Sep-20 17:51 34.267255 -118.179791 309 16518ft 301kts
14-Sep-20 17:52 34.311946 -118.244550 309 16522ft 301kts
14-Sep-20 17:53 34.373939 -118.334604 309 16522ft 301kts
14-Sep-20 17:54 34.427307 -118.412329 309 16523ft 302kts
14-Sep-20 17:55 34.480692 -118.490224 309 16528ft 301kts
14-Sep-20 17:56 34.534095 -118.568342 309 16532ft 301kts
14-Sep-20 17:57 34.587609 -118.646776 309 16541ft 301kts
14-Sep-20 17:58 34.640922 -118.725099 309 16522ft 301kts
14-Sep-20 17:59 34.691349 -118.799331 309 16519ft 301kts
14-Sep-20 18:00 34.735984 -118.865190 308 16521ft 300kts
14-Sep-20 18:01 34.787477 -118.941308 308 16545ft 300kts
14-Sep-20 18:02 34.840396 -119.019713 308 16546ft 300kts
14-Sep-20 18:03 34.893612 -119.098723 308 16544ft 301kts
14-Sep-20 18:04 34.946473 -119.177390 308 16538ft 300kts
14-Sep-20 18:05 34.999341 -119.256241 308 16531ft 301kts
14-Sep-20 18:06 35.052489 -119.335684 308 16528ft 301kts
14-Sep-20 18:07 35.105184 -119.414641 308 16524ft 301kts
14-Sep-20 18:08 35.158044 -119.494016 308 16522ft 302kts
14-Sep-20 18:09 35.210769 -119.573377 308 16518ft 302kts
14-Sep-20 18:10 35.251321 -119.661117 276 16515ft 301kts
14-Sep-20 18:11 35.237007 -119.761023 262 16520ft 301kts
14-Sep-20 18:12 35.222020 -119.860974 260 16516ft 300kts
14-Sep-20 18:13 35.206669 -119.960414 259 16516ft 300kts
14-Sep-20 18:14 35.191689 -120.056339 259 15570ft 310kts
14-Sep-20 18:15 35.175676 -120.158231 258 12798ft 303kts
14-Sep-20 18:16 35.160072 -120.256821 258 10631ft 300kts
14-Sep-20 18:17 35.144304 -120.355723 258 8734ft 280kts
14-Sep-20 18:18 35.129551 -120.448140 258 6170ft 275kts
14-Sep-20 18:19 35.115594 -120.535267 258 3349ft 245kts
14-Sep-20 18:20 35.092227 -120.594739 182 1531ft 172kts
14-Sep-20 18:21 35.102278 -120.624220 300 277ft 145kts
14-Sep-20 18:22 35.117649 -120.623475 112 841ft 134kts
14-Sep-20 18:23 35.097095 -120.604214 197 502ft 91kts
14-Sep-20 18:24 35.103000 -120.625050 300 19ft 25kts
14-Sep-20 18:25 35.103742 -120.624828 128 17ft 5kts
14-Sep-20 18:26 35.103329 -120.624003 149 19ft 0kts
14-Sep-20 18:27 35.103329 -120.624003 149 19ft 0kts
14-Sep-20 18:28 35.103329 -120.624003 149 19ft 0kts
14-Sep-20 18:29 0.000408 0.013975 0 3ft 0kts
14-Sep-20 18:30 0.000408 0.013975 0 3ft 0kts
14-Sep-20 18:31 0.000408 0.013975 0 3ft 0kts
14-Sep-20 18:32 0.000408 0.013975 0 3ft 0kts
14-Sep-20 18:33 0.000408 0.013975 0 3ft 0kts
14-Sep-20 18:34 0.000408 0.013975 0 3ft 0kts
14-Sep-20 18:35 0.000408 0.013975 0 3ft 0kts
14-Sep-20 18:36 0.000408 0.013975 0 3ft 0kts
14-Sep-20 18:37 0.000408 0.013975 0 3ft 0kts
14-Sep-20 18:38 0.000408 0.013975 0 3ft 0kts
14-Sep-20 18:39 0.000408 0.013975 0 3ft 0kts

Navigation Log

Ident Type
Flight plan parsing failed, navigation log unavailable